sensor_id;sensor_type;location;lat;lon;timestamp;P1;durP1;ratioP1;P2;durP2;ratioP2
2872;SDS011;1444;49.166;7.312;2022-08-14T00:00:20;9.10;;;8.20;;
2872;SDS011;1444;49.166;7.312;2022-08-14T00:02:48;12.43;;;5.47;;
2872;SDS011;1444;49.166;7.312;2022-08-14T00:05:15;7.43;;;6.50;;
2872;SDS011;1444;49.166;7.312;2022-08-14T00:07:45;5.60;;;5.10;;
2872;SDS011;1444;49.166;7.312;2022-08-14T00:10:15;15.73;;;7.20;;
2872;SDS011;1444;49.166;7.312;2022-08-14T00:12:45;6.97;;;6.27;;
2872;SDS011;1444;49.166;7.312;2022-08-14T00:15:14;6.50;;;5.77;;
2872;SDS011;1444;49.166;7.312;2022-08-14T00:17:42;6.47;;;5.87;;
2872;SDS011;1444;49.166;7.312;2022-08-14T00:20:10;5.50;;;4.93;;
2872;SDS011;1444;49.166;7.312;2022-08-14T00:22:37;6.53;;;5.27;;
2872;SDS011;1444;49.166;7.312;2022-08-14T00:25:07;6.30;;;5.17;;
2872;SDS011;1444;49.166;7.312;2022-08-14T00:27:35;13.90;;;6.70;;
2872;SDS011;1444;49.166;7.312;2022-08-14T00:30:02;7.47;;;4.63;;
2872;SDS011;1444;49.166;7.312;2022-08-14T00:32:32;5.43;;;4.93;;
2872;SDS011;1444;49.166;7.312;2022-08-14T00:34:58;6.40;;;5.80;;
2872;SDS011;1444;49.166;7.312;2022-08-14T00:37:26;16.73;;;7.37;;
2872;SDS011;1444;49.166;7.312;2022-08-14T00:39:53;9.70;;;6.50;;
2872;SDS011;1444;49.166;7.312;2022-08-14T00:42:21;9.97;;;8.13;;
2872;SDS011;1444;49.166;7.312;2022-08-14T00:44:49;11.13;;;5.83;;
2872;SDS011;1444;49.166;7.312;2022-08-14T00:47:17;13.40;;;8.57;;
2872;SDS011;1444;49.166;7.312;2022-08-14T00:49:45;6.70;;;6.10;;
2872;SDS011;1444;49.166;7.312;2022-08-14T00:52:12;14.10;;;7.00;;
2872;SDS011;1444;49.166;7.312;2022-08-14T00:54:42;9.33;;;6.53;;
2872;SDS011;1444;49.166;7.312;2022-08-14T00:57:09;8.10;;;5.40;;
2872;SDS011;1444;49.166;7.312;2022-08-14T00:59:38;8.70;;;5.40;;
2872;SDS011;1444;49.166;7.312;2022-08-14T01:02:05;6.50;;;5.90;;
2872;SDS011;1444;49.166;7.312;2022-08-14T01:04:32;6.53;;;5.93;;
2872;SDS011;1444;49.166;7.312;2022-08-14T01:07:00;7.23;;;6.63;;
2872;SDS011;1444;49.166;7.312;2022-08-14T01:09:28;7.90;;;7.10;;
2872;SDS011;1444;49.166;7.312;2022-08-14T01:11:55;7.40;;;6.70;;
2872;SDS011;1444;49.166;7.312;2022-08-14T01:14:23;9.00;;;8.20;;
2872;SDS011;1444;49.166;7.312;2022-08-14T01:16:51;8.47;;;7.57;;
2872;SDS011;1444;49.166;7.312;2022-08-14T01:19:18;9.20;;;7.10;;
2872;SDS011;1444;49.166;7.312;2022-08-14T01:22:04;5.67;;;5.13;;
2872;SDS011;1444;49.166;7.312;2022-08-14T01:24:32;6.17;;;5.60;;
2872;SDS011;1444;49.166;7.312;2022-08-14T01:27:00;6.73;;;6.03;;
2872;SDS011;1444;49.166;7.312;2022-08-14T01:29:29;8.30;;;7.50;;
2872;SDS011;1444;49.166;7.312;2022-08-14T01:32:02;15.30;;;5.40;;
2872;SDS011;1444;49.166;7.312;2022-08-14T01:34:29;10.00;;;7.50;;
2872;SDS011;1444;49.166;7.312;2022-08-14T01:36:57;8.20;;;7.40;;
2872;SDS011;1444;49.166;7.312;2022-08-14T01:39:25;19.60;;;7.60;;
2872;SDS011;1444;49.166;7.312;2022-08-14T01:41:53;6.80;;;6.20;;
2872;SDS011;1444;49.166;7.312;2022-08-14T01:44:22;8.00;;;7.13;;
2872;SDS011;1444;49.166;7.312;2022-08-14T01:46:55;7.27;;;6.57;;
2872;SDS011;1444;49.166;7.312;2022-08-14T01:49:23;8.80;;;7.53;;
2872;SDS011;1444;49.166;7.312;2022-08-14T01:51:52;8.27;;;7.37;;
2872;SDS011;1444;49.166;7.312;2022-08-14T01:54:21;10.03;;;8.53;;
2872;SDS011;1444;49.166;7.312;2022-08-14T01:56:51;8.60;;;7.70;;
2872;SDS011;1444;49.166;7.312;2022-08-14T01:59:21;17.63;;;8.10;;
2872;SDS011;1444;49.166;7.312;2022-08-14T02:01:53;6.00;;;5.43;;
2872;SDS011;1444;49.166;7.312;2022-08-14T02:04:22;12.70;;;10.67;;
2872;SDS011;1444;49.166;7.312;2022-08-14T02:06:50;7.60;;;6.90;;
2872;SDS011;1444;49.166;7.312;2022-08-14T02:09:18;9.47;;;8.47;;
2872;SDS011;1444;49.166;7.312;2022-08-14T02:11:45;7.67;;;6.60;;
2872;SDS011;1444;49.166;7.312;2022-08-14T02:14:14;5.27;;;4.87;;
2872;SDS011;1444;49.166;7.312;2022-08-14T02:16:42;7.60;;;6.87;;
2872;SDS011;1444;49.166;7.312;2022-08-14T02:19:13;27.43;;;6.80;;
2872;SDS011;1444;49.166;7.312;2022-08-14T02:21:41;6.90;;;6.10;;
2872;SDS011;1444;49.166;7.312;2022-08-14T02:24:10;5.73;;;5.17;;
2872;SDS011;1444;49.166;7.312;2022-08-14T02:26:38;10.63;;;5.47;;
2872;SDS011;1444;49.166;7.312;2022-08-14T02:29:07;6.33;;;5.73;;
2872;SDS011;1444;49.166;7.312;2022-08-14T02:31:38;8.10;;;7.30;;
2872;SDS011;1444;49.166;7.312;2022-08-14T02:34:07;6.10;;;4.70;;
2872;SDS011;1444;49.166;7.312;2022-08-14T02:36:35;7.17;;;6.53;;
2872;SDS011;1444;49.166;7.312;2022-08-14T02:39:04;5.93;;;5.33;;
2872;SDS011;1444;49.166;7.312;2022-08-14T02:41:32;5.97;;;5.47;;
2872;SDS011;1444;49.166;7.312;2022-08-14T02:44:00;6.30;;;4.73;;
2872;SDS011;1444;49.166;7.312;2022-08-14T02:46:27;9.97;;;8.97;;
2872;SDS011;1444;49.166;7.312;2022-08-14T02:48:56;5.97;;;5.40;;
2872;SDS011;1444;49.166;7.312;2022-08-14T02:51:24;8.00;;;7.20;;
2872;SDS011;1444;49.166;7.312;2022-08-14T02:53:54;33.63;;;6.83;;
2872;SDS011;1444;49.166;7.312;2022-08-14T02:56:22;8.67;;;7.77;;
2872;SDS011;1444;49.166;7.312;2022-08-14T02:58:50;6.23;;;5.60;;
2872;SDS011;1444;49.166;7.312;2022-08-14T03:01:18;17.23;;;7.63;;
2872;SDS011;1444;49.166;7.312;2022-08-14T03:03:47;6.83;;;6.13;;
2872;SDS011;1444;49.166;7.312;2022-08-14T03:06:17;6.53;;;5.63;;
2872;SDS011;1444;49.166;7.312;2022-08-14T03:08:46;6.60;;;5.07;;
2872;SDS011;1444;49.166;7.312;2022-08-14T03:11:13;8.83;;;7.80;;
2872;SDS011;1444;49.166;7.312;2022-08-14T03:13:42;8.60;;;6.73;;
2872;SDS011;1444;49.166;7.312;2022-08-14T03:16:15;7.03;;;6.30;;
2872;SDS011;1444;49.166;7.312;2022-08-14T03:18:45;11.53;;;6.33;;
2872;SDS011;1444;49.166;7.312;2022-08-14T03:21:15;12.97;;;6.73;;
2872;SDS011;1444;49.166;7.312;2022-08-14T03:23:45;6.50;;;5.80;;
2872;SDS011;1444;49.166;7.312;2022-08-14T03:26:15;9.87;;;7.63;;
2872;SDS011;1444;49.166;7.312;2022-08-14T03:28:44;7.47;;;6.77;;
2872;SDS011;1444;49.166;7.312;2022-08-14T03:31:14;8.43;;;7.60;;
2872;SDS011;1444;49.166;7.312;2022-08-14T03:33:48;25.33;;;7.03;;
2872;SDS011;1444;49.166;7.312;2022-08-14T03:36:18;10.00;;;8.93;;
2872;SDS011;1444;49.166;7.312;2022-08-14T03:38:46;6.47;;;5.87;;
2872;SDS011;1444;49.166;7.312;2022-08-14T03:41:17;21.87;;;8.73;;
2872;SDS011;1444;49.166;7.312;2022-08-14T03:43:45;6.07;;;5.43;;
2872;SDS011;1444;49.166;7.312;2022-08-14T03:46:14;8.57;;;7.67;;
2872;SDS011;1444;49.166;7.312;2022-08-14T03:48:43;7.90;;;6.43;;
2872;SDS011;1444;49.166;7.312;2022-08-14T03:51:11;9.30;;;6.73;;
2872;SDS011;1444;49.166;7.312;2022-08-14T03:53:40;6.53;;;5.93;;
2872;SDS011;1444;49.166;7.312;2022-08-14T03:56:09;7.03;;;6.23;;
2872;SDS011;1444;49.166;7.312;2022-08-14T03:58:38;8.53;;;6.40;;
2872;SDS011;1444;49.166;7.312;2022-08-14T04:01:07;18.57;;;6.70;;
2872;SDS011;1444;49.166;7.312;2022-08-14T04:03:34;7.17;;;6.27;;
2872;SDS011;1444;49.166;7.312;2022-08-14T04:06:01;8.93;;;6.30;;
2872;SDS011;1444;49.166;7.312;2022-08-14T04:08:28;16.37;;;7.20;;
2872;SDS011;1444;49.166;7.312;2022-08-14T04:10:57;7.00;;;6.30;;
2872;SDS011;1444;49.166;7.312;2022-08-14T04:13:24;11.17;;;8.73;;
2872;SDS011;1444;49.166;7.312;2022-08-14T04:15:51;18.83;;;6.83;;
2872;SDS011;1444;49.166;7.312;2022-08-14T04:18:18;13.30;;;10.37;;
2872;SDS011;1444;49.166;7.312;2022-08-14T04:20:45;6.97;;;6.20;;
2872;SDS011;1444;49.166;7.312;2022-08-14T04:23:11;19.63;;;6.37;;
2872;SDS011;1444;49.166;7.312;2022-08-14T04:25:38;9.80;;;6.83;;
2872;SDS011;1444;49.166;7.312;2022-08-14T04:28:06;6.87;;;6.10;;
2872;SDS011;1444;49.166;7.312;2022-08-14T04:30:35;17.40;;;6.63;;
2872;SDS011;1444;49.166;7.312;2022-08-14T04:33:03;9.50;;;6.40;;
2872;SDS011;1444;49.166;7.312;2022-08-14T04:35:32;6.40;;;5.80;;
2872;SDS011;1444;49.166;7.312;2022-08-14T04:37:59;22.40;;;7.07;;
2872;SDS011;1444;49.166;7.312;2022-08-14T04:40:43;7.97;;;5.93;;
2872;SDS011;1444;49.166;7.312;2022-08-14T04:43:29;10.70;;;8.13;;
2872;SDS011;1444;49.166;7.312;2022-08-14T04:46:02;6.30;;;5.70;;
2872;SDS011;1444;49.166;7.312;2022-08-14T04:48:29;16.23;;;5.80;;
2872;SDS011;1444;49.166;7.312;2022-08-14T04:50:54;7.13;;;6.20;;
2872;SDS011;1444;49.166;7.312;2022-08-14T04:53:22;9.57;;;8.60;;
2872;SDS011;1444;49.166;7.312;2022-08-14T04:55:50;20.13;;;6.80;;
2872;SDS011;1444;49.166;7.312;2022-08-14T04:58:18;11.47;;;9.53;;
2872;SDS011;1444;49.166;7.312;2022-08-14T05:00:48;8.10;;;7.30;;
2872;SDS011;1444;49.166;7.312;2022-08-14T05:03:15;8.97;;;7.57;;
2872;SDS011;1444;49.166;7.312;2022-08-14T05:05:45;6.53;;;5.93;;
2872;SDS011;1444;49.166;7.312;2022-08-14T05:08:12;10.60;;;6.97;;
2872;SDS011;1444;49.166;7.312;2022-08-14T05:10:40;8.97;;;7.17;;
2872;SDS011;1444;49.166;7.312;2022-08-14T05:13:08;6.70;;;6.00;;
2872;SDS011;1444;49.166;7.312;2022-08-14T05:15:37;8.10;;;5.97;;
2872;SDS011;1444;49.166;7.312;2022-08-14T05:18:08;9.97;;;6.57;;
2872;SDS011;1444;49.166;7.312;2022-08-14T05:20:37;9.07;;;7.80;;
2872;SDS011;1444;49.166;7.312;2022-08-14T05:23:06;17.13;;;6.90;;
2872;SDS011;1444;49.166;7.312;2022-08-14T05:25:33;8.40;;;7.47;;
2872;SDS011;1444;49.166;7.312;2022-08-14T05:28:06;9.93;;;7.83;;
2872;SDS011;1444;49.166;7.312;2022-08-14T05:30:34;10.23;;;8.37;;
2872;SDS011;1444;49.166;7.312;2022-08-14T05:33:01;9.23;;;7.43;;
2872;SDS011;1444;49.166;7.312;2022-08-14T05:35:30;8.87;;;7.97;;
2872;SDS011;1444;49.166;7.312;2022-08-14T05:37:57;10.70;;;8.53;;
2872;SDS011;1444;49.166;7.312;2022-08-14T05:40:25;11.47;;;9.97;;
2872;SDS011;1444;49.166;7.312;2022-08-14T05:42:53;43.33;;;9.60;;
2872;SDS011;1444;49.166;7.312;2022-08-14T05:45:20;14.20;;;11.53;;
2872;SDS011;1444;49.166;7.312;2022-08-14T05:47:47;9.90;;;7.80;;
2872;SDS011;1444;49.166;7.312;2022-08-14T05:50:14;15.90;;;8.83;;
2872;SDS011;1444;49.166;7.312;2022-08-14T05:52:42;10.40;;;8.97;;
2872;SDS011;1444;49.166;7.312;2022-08-14T05:55:09;10.30;;;8.97;;
2872;SDS011;1444;49.166;7.312;2022-08-14T05:57:46;12.97;;;8.87;;
2872;SDS011;1444;49.166;7.312;2022-08-14T06:00:15;13.40;;;10.97;;
2872;SDS011;1444;49.166;7.312;2022-08-14T06:02:42;10.93;;;9.57;;
2872;SDS011;1444;49.166;7.312;2022-08-14T06:05:09;16.70;;;9.60;;
2872;SDS011;1444;49.166;7.312;2022-08-14T06:07:36;12.30;;;10.13;;
2872;SDS011;1444;49.166;7.312;2022-08-14T06:10:06;10.17;;;8.30;;
2872;SDS011;1444;49.166;7.312;2022-08-14T06:12:33;9.60;;;8.67;;
2872;SDS011;1444;49.166;7.312;2022-08-14T06:15:01;17.93;;;8.80;;
2872;SDS011;1444;49.166;7.312;2022-08-14T06:17:29;19.37;;;9.73;;
2872;SDS011;1444;49.166;7.312;2022-08-14T06:19:57;12.17;;;9.20;;
2872;SDS011;1444;49.166;7.312;2022-08-14T06:22:24;12.00;;;10.53;;
2872;SDS011;1444;49.166;7.312;2022-08-14T06:24:51;10.77;;;8.53;;
2872;SDS011;1444;49.166;7.312;2022-08-14T06:27:19;12.00;;;10.80;;
2872;SDS011;1444;49.166;7.312;2022-08-14T06:29:46;10.77;;;8.27;;
2872;SDS011;1444;49.166;7.312;2022-08-14T06:32:13;9.77;;;8.77;;
2872;SDS011;1444;49.166;7.312;2022-08-14T06:34:39;10.23;;;9.23;;
2872;SDS011;1444;49.166;7.312;2022-08-14T06:37:06;9.47;;;8.30;;
2872;SDS011;1444;49.166;7.312;2022-08-14T06:39:33;9.63;;;8.57;;
2872;SDS011;1444;49.166;7.312;2022-08-14T06:42:00;9.63;;;8.73;;
2872;SDS011;1444;49.166;7.312;2022-08-14T06:44:28;11.77;;;10.60;;
2872;SDS011;1444;49.166;7.312;2022-08-14T06:46:56;8.23;;;7.53;;
2872;SDS011;1444;49.166;7.312;2022-08-14T06:49:24;13.73;;;9.00;;
2872;SDS011;1444;49.166;7.312;2022-08-14T06:51:51;8.17;;;7.37;;
2872;SDS011;1444;49.166;7.312;2022-08-14T06:54:18;10.93;;;7.90;;
2872;SDS011;1444;49.166;7.312;2022-08-14T06:56:45;19.70;;;8.83;;
2872;SDS011;1444;49.166;7.312;2022-08-14T06:59:13;9.33;;;7.20;;
2872;SDS011;1444;49.166;7.312;2022-08-14T07:01:41;8.50;;;7.80;;
2872;SDS011;1444;49.166;7.312;2022-08-14T07:04:34;8.67;;;7.93;;
2872;SDS011;1444;49.166;7.312;2022-08-14T07:07:18;9.73;;;8.73;;
2872;SDS011;1444;49.166;7.312;2022-08-14T07:09:45;10.40;;;8.00;;
2872;SDS011;1444;49.166;7.312;2022-08-14T07:12:12;12.87;;;7.57;;
2872;SDS011;1444;49.166;7.312;2022-08-14T07:14:39;7.53;;;6.83;;
2872;SDS011;1444;49.166;7.312;2022-08-14T07:17:07;8.00;;;7.30;;
2872;SDS011;1444;49.166;7.312;2022-08-14T07:19:33;13.83;;;6.83;;
2872;SDS011;1444;49.166;7.312;2022-08-14T07:22:00;15.33;;;7.63;;
2872;SDS011;1444;49.166;7.312;2022-08-14T07:24:27;10.73;;;8.63;;
2872;SDS011;1444;49.166;7.312;2022-08-14T07:26:54;28.50;;;8.60;;
2872;SDS011;1444;49.166;7.312;2022-08-14T07:29:20;10.20;;;9.10;;
2872;SDS011;1444;49.166;7.312;2022-08-14T07:31:47;7.90;;;7.10;;
2872;SDS011;1444;49.166;7.312;2022-08-14T07:34:15;12.47;;;7.57;;
2872;SDS011;1444;49.166;7.312;2022-08-14T07:36:42;8.53;;;7.63;;
2872;SDS011;1444;49.166;7.312;2022-08-14T07:39:09;8.80;;;8.00;;
2872;SDS011;1444;49.166;7.312;2022-08-14T07:41:36;14.83;;;7.70;;
2872;SDS011;1444;49.166;7.312;2022-08-14T07:44:03;7.47;;;6.77;;
2872;SDS011;1444;49.166;7.312;2022-08-14T07:46:35;8.30;;;7.57;;
2872;SDS011;1444;49.166;7.312;2022-08-14T07:49:02;13.23;;;7.07;;
2872;SDS011;1444;49.166;7.312;2022-08-14T07:51:30;9.77;;;7.40;;
2872;SDS011;1444;49.166;7.312;2022-08-14T07:53:57;7.33;;;6.63;;
2872;SDS011;1444;49.166;7.312;2022-08-14T07:56:24;16.60;;;8.97;;
2872;SDS011;1444;49.166;7.312;2022-08-14T07:58:52;7.90;;;7.30;;
2872;SDS011;1444;49.166;7.312;2022-08-14T08:01:18;10.17;;;9.17;;
2872;SDS011;1444;49.166;7.312;2022-08-14T08:03:45;16.33;;;6.97;;
2872;SDS011;1444;49.166;7.312;2022-08-14T08:06:13;9.30;;;6.80;;
2872;SDS011;1444;49.166;7.312;2022-08-14T08:08:43;6.73;;;6.10;;
2872;SDS011;1444;49.166;7.312;2022-08-14T08:11:12;7.23;;;6.67;;
2872;SDS011;1444;49.166;7.312;2022-08-14T08:13:40;16.63;;;6.87;;
2872;SDS011;1444;49.166;7.312;2022-08-14T08:16:08;6.80;;;6.20;;
2872;SDS011;1444;49.166;7.312;2022-08-14T08:18:34;7.20;;;6.60;;
2872;SDS011;1444;49.166;7.312;2022-08-14T08:21:01;6.37;;;5.80;;
2872;SDS011;1444;49.166;7.312;2022-08-14T08:23:29;7.30;;;6.30;;
2872;SDS011;1444;49.166;7.312;2022-08-14T08:25:58;6.70;;;6.10;;
2872;SDS011;1444;49.166;7.312;2022-08-14T08:28:25;13.23;;;8.90;;
2872;SDS011;1444;49.166;7.312;2022-08-14T08:30:53;12.40;;;5.77;;
2872;SDS011;1444;49.166;7.312;2022-08-14T08:33:22;10.20;;;8.07;;
2872;SDS011;1444;49.166;7.312;2022-08-14T08:35:51;5.53;;;5.03;;
2872;SDS011;1444;49.166;7.312;2022-08-14T08:38:23;16.13;;;6.30;;
2872;SDS011;1444;49.166;7.312;2022-08-14T08:40:52;6.00;;;5.50;;
2872;SDS011;1444;49.166;7.312;2022-08-14T08:43:22;11.83;;;10.00;;
2872;SDS011;1444;49.166;7.312;2022-08-14T08:45:52;5.10;;;4.60;;
2872;SDS011;1444;49.166;7.312;2022-08-14T08:48:20;8.43;;;7.60;;
2872;SDS011;1444;49.166;7.312;2022-08-14T08:50:47;10.97;;;6.23;;
2872;SDS011;1444;49.166;7.312;2022-08-14T08:53:15;6.83;;;6.13;;
2872;SDS011;1444;49.166;7.312;2022-08-14T08:55:42;16.50;;;5.30;;
2872;SDS011;1444;49.166;7.312;2022-08-14T08:58:11;7.07;;;6.33;;
2872;SDS011;1444;49.166;7.312;2022-08-14T09:00:41;6.20;;;5.60;;
2872;SDS011;1444;49.166;7.312;2022-08-14T09:03:12;4.93;;;4.50;;
2872;SDS011;1444;49.166;7.312;2022-08-14T09:05:48;14.60;;;4.57;;
2872;SDS011;1444;49.166;7.312;2022-08-14T09:08:17;5.87;;;5.27;;
2872;SDS011;1444;49.166;7.312;2022-08-14T09:10:45;14.93;;;5.97;;
2872;SDS011;1444;49.166;7.312;2022-08-14T09:13:13;5.70;;;5.20;;
2872;SDS011;1444;49.166;7.312;2022-08-14T09:15:42;4.43;;;4.10;;
2872;SDS011;1444;49.166;7.312;2022-08-14T09:18:10;5.77;;;5.23;;
2872;SDS011;1444;49.166;7.312;2022-08-14T09:20:38;9.67;;;6.30;;
2872;SDS011;1444;49.166;7.312;2022-08-14T09:23:07;5.27;;;4.87;;
2872;SDS011;1444;49.166;7.312;2022-08-14T09:25:34;12.73;;;5.73;;
2872;SDS011;1444;49.166;7.312;2022-08-14T09:28:02;11.00;;;4.97;;
2872;SDS011;1444;49.166;7.312;2022-08-14T09:30:30;5.90;;;5.30;;
2872;SDS011;1444;49.166;7.312;2022-08-14T09:33:06;13.27;;;4.67;;
2872;SDS011;1444;49.166;7.312;2022-08-14T09:35:59;6.90;;;6.00;;
2872;SDS011;1444;49.166;7.312;2022-08-14T09:38:37;5.30;;;4.80;;
2872;SDS011;1444;49.166;7.312;2022-08-14T09:41:12;12.50;;;4.03;;
2872;SDS011;1444;49.166;7.312;2022-08-14T09:43:50;4.67;;;4.20;;
2872;SDS011;1444;49.166;7.312;2022-08-14T09:46:29;31.33;;;6.03;;
2872;SDS011;1444;49.166;7.312;2022-08-14T09:48:58;8.13;;;7.33;;
2872;SDS011;1444;49.166;7.312;2022-08-14T09:51:25;8.53;;;7.07;;
2872;SDS011;1444;49.166;7.312;2022-08-14T09:54:00;24.57;;;4.40;;
2872;SDS011;1444;49.166;7.312;2022-08-14T09:56:41;6.27;;;4.30;;
2872;SDS011;1444;49.166;7.312;2022-08-14T09:59:10;10.63;;;3.07;;
2872;SDS011;1444;49.166;7.312;2022-08-14T10:01:39;4.60;;;4.20;;
2872;SDS011;1444;49.166;7.312;2022-08-14T10:04:17;6.30;;;4.10;;
2872;SDS011;1444;49.166;7.312;2022-08-14T10:06:45;4.90;;;4.50;;
2872;SDS011;1444;49.166;7.312;2022-08-14T10:09:12;5.40;;;4.10;;
2872;SDS011;1444;49.166;7.312;2022-08-14T10:11:40;5.90;;;3.60;;
2872;SDS011;1444;49.166;7.312;2022-08-14T10:14:20;6.60;;;4.20;;
2872;SDS011;1444;49.166;7.312;2022-08-14T10:16:49;4.70;;;4.27;;
2872;SDS011;1444;49.166;7.312;2022-08-14T10:19:20;4.10;;;3.80;;
2872;SDS011;1444;49.166;7.312;2022-08-14T10:21:55;3.70;;;3.40;;
2872;SDS011;1444;49.166;7.312;2022-08-14T10:24:27;12.30;;;4.10;;
2872;SDS011;1444;49.166;7.312;2022-08-14T10:26:56;4.10;;;3.70;;
2872;SDS011;1444;49.166;7.312;2022-08-14T10:29:30;3.27;;;3.07;;
2872;SDS011;1444;49.166;7.312;2022-08-14T10:31:59;3.83;;;3.53;;
2872;SDS011;1444;49.166;7.312;2022-08-14T10:34:31;4.20;;;3.80;;
2872;SDS011;1444;49.166;7.312;2022-08-14T10:37:03;12.27;;;3.60;;
2872;SDS011;1444;49.166;7.312;2022-08-14T10:39:33;4.83;;;3.30;;
2872;SDS011;1444;49.166;7.312;2022-08-14T10:42:02;3.70;;;3.40;;
2872;SDS011;1444;49.166;7.312;2022-08-14T10:44:31;2.73;;;2.53;;
2872;SDS011;1444;49.166;7.312;2022-08-14T10:46:59;6.40;;;3.00;;
2872;SDS011;1444;49.166;7.312;2022-08-14T10:49:33;3.77;;;3.47;;
2872;SDS011;1444;49.166;7.312;2022-08-14T10:52:01;4.97;;;3.37;;
2872;SDS011;1444;49.166;7.312;2022-08-14T10:54:32;4.17;;;3.87;;
2872;SDS011;1444;49.166;7.312;2022-08-14T10:57:18;3.83;;;3.63;;
2872;SDS011;1444;49.166;7.312;2022-08-14T10:59:50;3.47;;;3.27;;
2872;SDS011;1444;49.166;7.312;2022-08-14T11:02:24;3.40;;;3.10;;
2872;SDS011;1444;49.166;7.312;2022-08-14T11:05:00;3.10;;;2.90;;
2872;SDS011;1444;49.166;7.312;2022-08-14T11:07:29;12.57;;;3.50;;
2872;SDS011;1444;49.166;7.312;2022-08-14T11:09:57;2.73;;;2.53;;
2872;SDS011;1444;49.166;7.312;2022-08-14T11:12:38;3.50;;;3.20;;
2872;SDS011;1444;49.166;7.312;2022-08-14T11:15:10;2.80;;;2.60;;
2872;SDS011;1444;49.166;7.312;2022-08-14T11:17:38;2.57;;;2.23;;
2872;SDS011;1444;49.166;7.312;2022-08-14T11:20:07;11.40;;;2.60;;
2872;SDS011;1444;49.166;7.312;2022-08-14T11:22:36;3.43;;;3.13;;
2872;SDS011;1444;49.166;7.312;2022-08-14T11:25:06;2.90;;;2.70;;
2872;SDS011;1444;49.166;7.312;2022-08-14T11:27:35;3.17;;;2.97;;
2872;SDS011;1444;49.166;7.312;2022-08-14T11:30:05;4.20;;;2.70;;
2872;SDS011;1444;49.166;7.312;2022-08-14T11:32:34;3.30;;;3.00;;
2872;SDS011;1444;49.166;7.312;2022-08-14T11:35:03;3.13;;;2.87;;
2872;SDS011;1444;49.166;7.312;2022-08-14T11:37:31;6.03;;;4.57;;
2872;SDS011;1444;49.166;7.312;2022-08-14T11:39:58;11.53;;;3.67;;
2872;SDS011;1444;49.166;7.312;2022-08-14T11:42:26;3.20;;;2.90;;
2872;SDS011;1444;49.166;7.312;2022-08-14T11:44:55;2.53;;;2.33;;
2872;SDS011;1444;49.166;7.312;2022-08-14T11:47:24;13.03;;;3.03;;
2872;SDS011;1444;49.166;7.312;2022-08-14T11:49:50;2.80;;;2.60;;
2872;SDS011;1444;49.166;7.312;2022-08-14T11:52:18;3.40;;;3.10;;
2872;SDS011;1444;49.166;7.312;2022-08-14T11:54:55;7.83;;;2.93;;
2872;SDS011;1444;49.166;7.312;2022-08-14T11:57:24;2.93;;;2.63;;
2872;SDS011;1444;49.166;7.312;2022-08-14T11:59:59;3.23;;;2.93;;
2872;SDS011;1444;49.166;7.312;2022-08-14T12:02:26;2.80;;;2.60;;
2872;SDS011;1444;49.166;7.312;2022-08-14T12:04:53;10.77;;;3.17;;
2872;SDS011;1444;49.166;7.312;2022-08-14T12:07:20;11.73;;;3.30;;
2872;SDS011;1444;49.166;7.312;2022-08-14T12:09:52;3.40;;;3.20;;
2872;SDS011;1444;49.166;7.312;2022-08-14T12:12:22;6.23;;;2.50;;
2872;SDS011;1444;49.166;7.312;2022-08-14T12:14:50;2.80;;;2.60;;
2872;SDS011;1444;49.166;7.312;2022-08-14T12:17:20;3.30;;;3.10;;
2872;SDS011;1444;49.166;7.312;2022-08-14T12:19:48;14.20;;;2.93;;
2872;SDS011;1444;49.166;7.312;2022-08-14T12:22:16;3.40;;;3.10;;
2872;SDS011;1444;49.166;7.312;2022-08-14T12:24:49;2.63;;;2.43;;
2872;SDS011;1444;49.166;7.312;2022-08-14T12:27:17;10.23;;;2.80;;
2872;SDS011;1444;49.166;7.312;2022-08-14T12:29:50;3.03;;;2.80;;
2872;SDS011;1444;49.166;7.312;2022-08-14T12:32:18;3.60;;;3.30;;
2872;SDS011;1444;49.166;7.312;2022-08-14T12:34:51;5.20;;;3.03;;
2872;SDS011;1444;49.166;7.312;2022-08-14T12:37:27;3.27;;;2.90;;
2872;SDS011;1444;49.166;7.312;2022-08-14T12:39:55;11.63;;;3.47;;
2872;SDS011;1444;49.166;7.312;2022-08-14T12:42:34;2.90;;;2.70;;
2872;SDS011;1444;49.166;7.312;2022-08-14T12:45:01;3.10;;;2.90;;
2872;SDS011;1444;49.166;7.312;2022-08-14T12:47:29;8.13;;;2.90;;
2872;SDS011;1444;49.166;7.312;2022-08-14T12:49:56;3.20;;;3.00;;
2872;SDS011;1444;49.166;7.312;2022-08-14T12:52:27;21.07;;;3.90;;
2872;SDS011;1444;49.166;7.312;2022-08-14T12:54:56;3.77;;;3.47;;
2872;SDS011;1444;49.166;7.312;2022-08-14T12:57:31;3.90;;;3.50;;
2872;SDS011;1444;49.166;7.312;2022-08-14T13:00:06;3.70;;;3.50;;
2872;SDS011;1444;49.166;7.312;2022-08-14T13:02:38;6.30;;;3.90;;
2872;SDS011;1444;49.166;7.312;2022-08-14T13:05:06;11.70;;;3.87;;
2872;SDS011;1444;49.166;7.312;2022-08-14T13:07:34;3.60;;;3.30;;
2872;SDS011;1444;49.166;7.312;2022-08-14T13:10:04;3.80;;;3.50;;
2872;SDS011;1444;49.166;7.312;2022-08-14T13:12:32;3.40;;;3.10;;
2872;SDS011;1444;49.166;7.312;2022-08-14T13:15:02;3.40;;;3.10;;
2872;SDS011;1444;49.166;7.312;2022-08-14T13:17:30;3.30;;;3.00;;
2872;SDS011;1444;49.166;7.312;2022-08-14T13:20:00;4.00;;;3.70;;
2872;SDS011;1444;49.166;7.312;2022-08-14T13:22:27;3.40;;;3.07;;
2872;SDS011;1444;49.166;7.312;2022-08-14T13:24:54;5.80;;;3.00;;
2872;SDS011;1444;49.166;7.312;2022-08-14T13:27:23;3.73;;;3.43;;
2872;SDS011;1444;49.166;7.312;2022-08-14T13:29:51;3.03;;;2.83;;
2872;SDS011;1444;49.166;7.312;2022-08-14T13:32:20;9.83;;;3.23;;
2872;SDS011;1444;49.166;7.312;2022-08-14T13:34:50;3.83;;;3.40;;
2872;SDS011;1444;49.166;7.312;2022-08-14T13:37:17;3.10;;;2.90;;
2872;SDS011;1444;49.166;7.312;2022-08-14T13:39:45;17.03;;;3.40;;
2872;SDS011;1444;49.166;7.312;2022-08-14T13:42:14;4.10;;;3.80;;
2872;SDS011;1444;49.166;7.312;2022-08-14T13:44:45;3.80;;;3.50;;
2872;SDS011;1444;49.166;7.312;2022-08-14T13:47:16;3.40;;;3.20;;
2872;SDS011;1444;49.166;7.312;2022-08-14T13:49:44;3.50;;;3.20;;
2872;SDS011;1444;49.166;7.312;2022-08-14T13:52:11;3.30;;;3.00;;
2872;SDS011;1444;49.166;7.312;2022-08-14T13:54:41;3.33;;;3.03;;
2872;SDS011;1444;49.166;7.312;2022-08-14T13:57:10;4.30;;;2.97;;
2872;SDS011;1444;49.166;7.312;2022-08-14T13:59:39;8.73;;;4.00;;
2872;SDS011;1444;49.166;7.312;2022-08-14T14:02:10;3.20;;;3.00;;
2872;SDS011;1444;49.166;7.312;2022-08-14T14:04:40;4.60;;;3.10;;
2872;SDS011;1444;49.166;7.312;2022-08-14T14:07:09;4.50;;;2.97;;
2872;SDS011;1444;49.166;7.312;2022-08-14T14:09:38;3.53;;;2.90;;
2872;SDS011;1444;49.166;7.312;2022-08-14T14:12:07;3.37;;;3.10;;
2872;SDS011;1444;49.166;7.312;2022-08-14T14:14:35;3.50;;;3.30;;
2872;SDS011;1444;49.166;7.312;2022-08-14T14:17:03;3.67;;;3.37;;
2872;SDS011;1444;49.166;7.312;2022-08-14T14:19:31;3.20;;;2.70;;
2872;SDS011;1444;49.166;7.312;2022-08-14T14:22:00;2.77;;;2.57;;
2872;SDS011;1444;49.166;7.312;2022-08-14T14:24:27;2.93;;;2.63;;
2872;SDS011;1444;49.166;7.312;2022-08-14T14:26:55;10.83;;;3.43;;
2872;SDS011;1444;49.166;7.312;2022-08-14T14:29:27;3.20;;;3.00;;
2872;SDS011;1444;49.166;7.312;2022-08-14T14:31:57;3.13;;;2.93;;
2872;SDS011;1444;49.166;7.312;2022-08-14T14:34:24;12.97;;;3.57;;
2872;SDS011;1444;49.166;7.312;2022-08-14T14:36:52;3.20;;;3.00;;
2872;SDS011;1444;49.166;7.312;2022-08-14T14:39:21;3.07;;;2.60;;
2872;SDS011;1444;49.166;7.312;2022-08-14T14:41:52;4.40;;;2.73;;
2872;SDS011;1444;49.166;7.312;2022-08-14T14:44:21;4.73;;;3.57;;
2872;SDS011;1444;49.166;7.312;2022-08-14T14:46:50;26.80;;;4.03;;
2872;SDS011;1444;49.166;7.312;2022-08-14T14:49:18;2.50;;;2.30;;
2872;SDS011;1444;49.166;7.312;2022-08-14T14:51:45;3.63;;;3.33;;
2872;SDS011;1444;49.166;7.312;2022-08-14T14:54:13;9.63;;;3.33;;
2872;SDS011;1444;49.166;7.312;2022-08-14T14:56:43;3.63;;;2.97;;
2872;SDS011;1444;49.166;7.312;2022-08-14T14:59:11;2.93;;;2.73;;
2872;SDS011;1444;49.166;7.312;2022-08-14T15:01:38;11.63;;;3.20;;
2872;SDS011;1444;49.166;7.312;2022-08-14T15:04:06;2.83;;;2.63;;
2872;SDS011;1444;49.166;7.312;2022-08-14T15:06:34;2.90;;;2.70;;
2872;SDS011;1444;49.166;7.312;2022-08-14T15:09:00;8.00;;;3.10;;
2872;SDS011;1444;49.166;7.312;2022-08-14T15:11:27;3.03;;;2.70;;
2872;SDS011;1444;49.166;7.312;2022-08-14T15:13:56;4.40;;;3.33;;
2872;SDS011;1444;49.166;7.312;2022-08-14T15:16:22;7.03;;;3.60;;
2872;SDS011;1444;49.166;7.312;2022-08-14T15:18:49;3.47;;;2.67;;
2872;SDS011;1444;49.166;7.312;2022-08-14T15:21:16;3.93;;;3.53;;